Nearby METAR Reports

 

EGTE - Exeter Airport, United Kingdom
Distance from station: S 19km
Updated: 20/11/2018 07:20
Few Clouds
Few Clouds
 Wind from NNE
Wind: NNE 19 km/h
Temperature: 5°C
Wind Chill: 1°C
Dew Point: 2°C
Humidity: 81%
Barometer: 1010 hPa
Clouds: Few Clouds
Visibility: 10 km
Cloud details: Few Clouds 1067 m
2018/11/20 07:20 EGTE 200720Z 02010KT 350V050 9999 FEW035 05/02 Q1010
EGDY - Yeovilton (navy), United Kingdom
Distance from station: ENE 55km
Updated: 20/11/2018 06:50
Mostly cloudy
Mostly cloudy
 Wind from NNE
Wind: NNE 22 km/h
Temperature: 5°C
Wind Chill: 1°C
Dew Point: 1°C
Humidity: 76%
Barometer: 1010 hPa
Clouds: Mostly cloudy
Visibility: 10 km
Cloud details: Few Clouds 610 m
Mostly cloudy 1372 m
2018/11/20 06:50 EGDY 200650Z 03012KT 9999 FEW020 BKN045 05/01 Q1010 BLU NOSIG
 
EGFF - Cardiff-Wales Ar, United Kingdom
Distance from station: N 56km
Updated: 20/11/2018 07:20
Clear
Clear
 Wind from NE
Wind: NE 26 km/h
Temperature: 5°C
Wind Chill: 1°C
Dew Point: 0°C
Humidity: 70%
Barometer: 1011 hPa
Clouds: Clear
Visibility: 10 km
2018/11/20 07:20 EGFF 200720Z AUTO 05014KT 9999 NCD 05/00 Q1011
EGDX - St Athan Raf, United Kingdom
Distance from station: N 58km
Updated: 20/11/2018 06:50
Mostly cloudy
Mostly cloudy
 Wind from NE
Wind: NE 26 km/h
Temperature: 5°C
Wind Chill: 1°C
Dew Point: 0°C
Humidity: 70%
Barometer: 1011 hPa
Clouds: Mostly cloudy
Visibility: 10 km
Cloud details: Mostly cloudy 1524 m
2018/11/20 06:50 EGDX 200650Z AUTO 05014KT 9999 BKN050/// 05/00 Q1011
 
EGGD - Bristol/Lulsgate, United Kingdom
Distance from station: NE 71km
Updated: 20/11/2018 07:20
Partly cloudy
Partly cloudy
 
Temperature: 4°C
Dew Point: 1°C
Humidity: 81%
Barometer: 1010 hPa
Clouds: Partly cloudy
Visibility: 10 km
Cloud details: Few Clouds 792 m
Partly cloudy 1463 m
2018/11/20 07:20 EGGD 200720Z 9999 FEW026 SCT048 04/01 Q1010